Terminal Aerodrome Forecast
Issued by NWS

Home | Current Version | Previous Version | Text Only | Print | Product List | Glossary On
Versions: 1 2 3 4 5 6 7 8 9 10 11 12 13 14 15 16 17 18 19 20 21 22 23 24
000
FTUS45 KBOU 141617 AAC
TAFBJC
TAF AMD
KBJC 141617Z 1416/1512 30022G35KT P6SM FEW090
     FM141700 34028G49KT P6SM FEW090 SCT130
     FM142300 01013KT P6SM FEW080 SCT140
     FM150300 04007KT P6SM FEW200
     FM150700 29008KT P6SM FEW200=

USA.gov is the U.S. government's official web portal to all federal, state and local government web resources and services.